Latest Coastal Weather Observations for St Helens

IDT60701

Issued at 11:25 pm EST Thursday 31 July 2014 (issued every 10 minutes, with the page automatically refreshed every 10 minutes)

About coastal observations | Map of coastal stations | Coastal observations for TAS | Marine services | Other Formats
Station Details ID: 092120 Name: ST HELENS AERODROME Lat: -41.34 Lon: 148.28 Height: 48.0 m
Data from the previous 72 hours. | See also: Recent months at St Helens
Date/Time
EST
Temp

°C
Wind Pressure Rain
since 9am
mm
Weather Cloud Vis
km
Sea
Height
m
Swell
Dir
 
Speed
knots
Gust
knots
hPa Trend Height
m
Period
s
Dir
31/11:00pm 8.1 W 8 16 989.6 - 4.0 - - - - - - -
31/10:30pm 8.1 WNW 11 19 989.2 - 4.0 - - - - - - -
31/10:00pm 8.4 WNW 12 24 988.8 - 4.0 - - - - - - -
31/09:30pm 8.5 WNW 10 21 989.3 - 4.0 - - - - - - -
31/09:00pm 8.5 WNW 13 24 989.0 - 4.0 - - - - - - -
31/08:30pm 8.1 NW 13 21 988.9 - 4.0 - - - - - - -
31/08:23pm 8.1 NW 15 25 988.8 - 4.0 - - - - - - -
31/08:22pm 8.1 NW 15 25 988.8 - 4.0 - - - - - - -
31/08:00pm 7.7 N 12 20 988.3 - 4.0 - - - - - - -
31/07:30pm 9.0 NW 10 17 988.2 - 4.0 - - - - - - -
31/07:00pm 8.8 WNW 12 21 987.9 - 4.0 - - - - - - -
31/06:30pm 8.1 NW 13 20 987.6 - 4.0 - - - - - - -
31/06:00pm 7.8 WNW 12 21 988.0 - 3.6 - - - - - - -
31/05:30pm 8.0 W 12 24 987.4 - 3.2 - - - - - - -
31/05:10pm 8.4 W 15 30 987.1 - 3.2 - - - - - - -
31/05:00pm 8.9 W 12 26 986.8 - 3.2 - - - - - - -
31/04:30pm 9.4 WNW 13 24 986.1 - 2.8 - - - - - - -
31/04:00pm 10.0 WNW 13 21 985.2 - 2.4 - - - - - - -
31/03:30pm 10.7 WNW 11 19 984.5 - 2.4 - - - - - - -
31/03:00pm 11.8 WNW 15 28 983.7 - 2.4 - - - - - - -
31/02:59pm 11.8 W 13 26 983.5 - 2.4 - - - - - - -
31/02:58pm 11.8 W 13 39 983.5 - 2.4 - - - - - - -
31/02:30pm 14.7 NW 22 42 982.6 - 1.6 - - - - - - -
31/02:00pm 14.6 NW 22 42 983.3 - 1.6 - - - - - - -
31/01:30pm 14.6 NW 21 40 983.8 - 1.6 - - - - - - -
31/01:00pm 14.5 NW 20 43 984.7 - 1.6 - - - - - - -
31/12:30pm 14.4 NW 21 42 985.5 - 1.6 - - - - - - -
31/12:00pm 14.3 NW 21 38 986.5 - 1.6 - - - - - - -
31/11:30am 14.3 NW 21 39 987.4 - 1.6 - - - - - - -
31/11:03am 13.3 NW 22 47 988.1 - 1.6 - - - - - - -
31/11:00am 13.3 NW 22 37 988.2 - 1.6 - - - - - - -
31/10:47am 14.0 NW 22 41 988.3 - 1.6 - - - - - - -
31/10:30am 13.6 NW 19 30 988.8 - 1.4 - - - - - - -
31/10:00am 13.4 NW 21 37 989.8 - 1.4 - - - - - - -
31/09:30am 12.2 NW 17 30 990.5 - 0.8 - - - - - - -
31/09:00am 12.3 NW 20 33 990.7 - 5.8 Showers Mostly cloudy 5 - - - -
31/08:30am 13.2 NW 19 35 990.9 - 5.2 - - - - - - -
31/08:00am 12.6 NNW 18 33 991.6 - 5.0 - - - - - - -
31/07:30am 12.4 NW 16 27 992.0 - 4.8 - - - - - - -
31/07:00am 12.8 NNW 17 27 992.1 - 4.0 - - - - - - -
31/06:30am 12.1 NNW 16 28 992.4 - 3.6 - - - - - - -
31/06:03am 12.2 NNW 15 27 992.9 - 3.2 - - - - - - -
31/06:00am 12.3 NW 15 27 992.9 - 3.0 - - - - - - -
31/05:30am 12.9 NW 18 30 992.9 - 2.4 - - - - - - -
31/05:18am 13.6 NW 21 42 992.8 - 2.4 - - - - - - -
31/05:00am 13.6 NW 20 32 992.9 - 2.4 - - - - - - -
31/04:30am 14.1 NW 20 36 992.6 - 2.4 - - - - - - -
31/04:00am 13.7 WNW 22 44 993.2 - 2.4 - - - - - - -
31/03:59am 13.7 WNW 22 44 993.2 - 2.4 - - - - - - -
31/03:30am 12.6 NW 19 34 993.3 - 2.2 - - - - - - -
31/03:00am 12.7 NW 21 36 993.6 - 2.2 - - - - - - -
31/02:30am 12.6 NW 19 39 994.0 - 1.6 - - - - - - -
31/02:00am 12.4 NW 19 34 994.3 - 1.0 - - - - - - -
31/01:30am 12.5 NW 19 30 995.0 - 0.6 - - - - - - -
31/01:00am 12.7 NW 19 34 995.7 - 0.2 - - - - - - -
31/12:30am 13.7 NW 17 34 996.0 - 0.2 - - - - - - -
31/12:00am 14.3 WNW 19 38 996.3 - 0.2 - - - - - - -
 
Date/Time
EST
Temp

°C
Wind Pressure Rain
since 9am
mm
Weather Cloud Vis
km
Sea
Height
m
Swell
Dir
 
Speed
knots
Gust
knots
hPa Trend Height
m
Period
s
Dir
30/11:30pm 14.1 WNW 20 36 996.4 - 0.0 - - - - - - -
30/11:00pm 13.7 WNW 16 28 996.6 - 0.0 - - - - - - -
30/10:30pm 13.1 WNW 17 31 996.7 - 0.0 - - - - - - -
30/10:00pm 13.8 WNW 21 44 996.5 - 0.0 - - - - - - -
30/09:57pm 14.1 WNW 19 44 996.4 - 0.0 - - - - - - -
30/09:56pm 14.1 WNW 19 44 996.4 - 0.0 - - - - - - -
30/09:30pm 13.8 W 15 30 996.6 - 0.0 - - - - - - -
30/09:00pm 14.7 WNW 21 45 996.7 - 0.0 - - - - - - -
30/08:30pm 14.1 WNW 17 38 997.0 - 0.0 - - - - - - -
30/08:00pm 14.1 WNW 19 35 997.4 - 0.0 - - - - - - -
30/07:30pm 13.8 WNW 16 28 997.8 - 0.0 - - - - - - -
30/07:00pm 14.3 W 15 29 997.8 - 0.0 - - - - - - -
30/06:31pm 14.4 WNW 18 28 997.8 - 0.0 - - - - - - -
30/06:30pm 14.4 WNW 18 28 997.8 - 0.0 - - - - - - -
30/06:00pm 14.0 WNW 15 27 997.3 - 0.0 - - - - - - -
30/05:30pm 14.2 W 15 29 997.1 - 0.0 - - - - - - -
30/05:05pm 14.1 WNW 15 28 997.2 - 0.0 - - - - - - -
30/05:00pm 14.0 WNW 13 28 997.2 - 0.0 - - - - - - -
30/04:30pm 14.2 W 16 31 996.8 - 0.0 - - - - - - -
30/04:00pm 14.5 W 17 29 996.7 - 0.0 - - - - - - -
30/03:30pm 14.1 WNW 16 30 996.9 - 0.0 - - - - - - -
30/03:23pm 14.3 W 15 29 996.9 - 0.0 - - - - - - -
30/03:00pm 14.6 WNW 14 28 997.5 - 0.0 - - - - - - -
30/02:30pm 14.9 WNW 16 30 997.4 - 0.0 - - - - - - -
30/02:19pm 14.7 W 15 32 997.5 - 0.0 - - - - - - -
30/02:00pm 14.1 W 14 28 997.7 - 0.0 - - - - - - -
30/01:30pm 14.5 W 16 34 997.7 - 0.0 - - - - - - -
30/01:07pm 14.4 W 15 35 998.2 - 0.0 - - - - - - -
30/01:00pm 14.1 W 13 29 998.4 - 0.0 - - - - - - -
30/12:30pm 14.8 W 15 32 998.9 - 0.0 - - - - - - -
30/12:09pm 14.5 W 15 34 999.3 - 0.0 - - - - - - -
30/12:08pm 14.5 W 15 34 999.3 - 0.0 - - - - - - -
30/12:00pm 14.9 W 11 25 999.6 - 0.0 - - - - - - -
30/11:40am 14.6 W 15 26 999.8 - 0.0 - - - - - - -
30/11:30am 14.5 W 13 31 1000.0 - 0.0 - - - - - - -
30/11:00am 14.0 W 13 28 1000.5 - 0.0 - - - - - - -
30/10:30am 13.6 W 11 25 1001.1 - 0.0 - - - - - - -
30/10:00am 13.1 W 9 17 1001.3 - 0.0 - - - - - - -
30/09:30am 12.6 WNW 12 21 1001.5 - 0.0 - - - - - - -
30/09:00am 12.6 WNW 9 17 1001.7 - 9.6 Haze Partly cloudy 10 - - - -
30/08:30am 12.1 W 7 17 1001.5 - 9.6 - - - - - - -
30/08:00am 11.6 W 9 15 1001.5 - 9.6 - - - - - - -
30/07:30am 11.2 W 8 13 1001.7 - 9.6 - - - - - - -
30/07:00am 10.9 W 8 15 1002.0 - 9.6 - - - - - - -
30/06:30am 10.7 WSW 7 16 1001.7 - 9.6 - - - - - - -
30/06:00am 11.3 W 8 15 1001.5 - 9.6 - - - - - - -
30/05:30am 11.3 WSW 5 12 1000.8 - 9.6 - - - - - - -
30/05:00am 11.5 WSW 8 16 1000.5 - 9.6 - - - - - - -
30/04:30am 11.7 W 8 20 999.7 - 9.6 - - - - - - -
30/04:00am 11.7 W 8 15 999.2 - 9.6 - - - - - - -
30/03:30am 11.9 W 8 16 998.6 - 9.6 - - - - - - -
30/03:00am 12.1 W 10 19 998.1 - 9.6 - - - - - - -
30/02:30am 12.2 W 12 23 997.6 - 9.6 - - - - - - -
30/02:00am 12.5 W 13 24 996.7 - 9.6 - - - - - - -
30/01:38am 12.7 W 15 31 996.3 - 9.6 - - - - - - -
30/01:30am 12.6 W 13 27 996.1 - 9.6 - - - - - - -
30/01:00am 12.4 WNW 16 29 995.6 - 9.6 - - - - - - -
30/12:30am 12.0 WNW 16 32 995.2 - 9.6 - - - - - - -
30/12:00am 12.3 WNW 17 31 995.2 - 9.6 - - - - - - -
 
Date/Time
EST
Temp

°C
Wind Pressure Rain
since 9am
mm
Weather Cloud Vis
km
Sea
Height
m
Swell
Dir
 
Speed
knots
Gust
knots
hPa Trend Height
m
Period
s
Dir
29/11:43pm 12.3 WNW 15 28 995.1 - 9.6 - - - - - - -
29/11:30pm 12.2 W 14 26 995.3 - 9.6 - - - - - - -
29/11:00pm 12.4 W 17 27 995.2 - 9.6 - - - - - - -
29/10:30pm 12.4 W 15 33 994.6 - 9.6 - - - - - - -
29/10:25pm 12.5 WNW 15 29 994.7 - 9.6 - - - - - - -
29/10:00pm 12.3 W 14 26 994.6 - 9.6 - - - - - - -
29/09:50pm 12.2 WNW 15 31 994.5 - 9.6 - - - - - - -
29/09:49pm 12.2 WNW 15 31 994.5 - 9.6 - - - - - - -
29/09:30pm 12.3 W 12 21 994.2 - 9.4 - - - - - - -
29/09:00pm 13.8 W 13 23 993.5 - 9.4 - - - - - - -
29/08:30pm 13.8 W 16 30 993.4 - 9.4 - - - - - - -
29/08:00pm 13.8 W 15 35 992.8 - 9.4 - - - - - - -
29/07:30pm 14.1 WNW 20 36 992.0 - 9.4 - - - - - - -
29/07:00pm 13.3 W 15 34 991.6 - 9.2 - - - - - - -
29/06:30pm 12.7 WNW 17 38 991.6 - 8.6 - - - - - - -
29/06:27pm 12.6 WNW 16 38 991.5 - 8.6 - - - - - - -
29/06:26pm 12.6 WNW 16 38 991.5 - 8.6 - - - - - - -
29/06:00pm 13.0 NW 16 28 991.6 - 7.4 - - - - - - -
29/05:30pm 13.8 WNW 20 42 991.1 - 7.2 - - - - - - -
29/05:27pm 13.9 NW 20 42 991.1 - 7.2 - - - - - - -
29/05:00pm 13.1 NW 18 32 991.3 - 7.2 - - - - - - -
29/04:30pm 13.6 WNW 18 38 991.5 - 7.2 - - - - - - -
29/04:29pm 13.7 WNW 18 38 991.4 - 7.2 - - - - - - -
29/04:28pm 13.7 WNW 18 38 991.4 - 7.2 - - - - - - -
29/04:17pm 13.0 WNW 15 25 992.2 - 7.2 - - - - - - -
29/04:16pm 13.0 WNW 15 25 992.2 - 7.2 - - - - - - -
29/04:00pm 12.5 WNW 14 22 992.5 - 7.2 - - - - - - -
29/03:30pm 12.3 WNW 16 30 992.8 - 7.2 - - - - - - -
29/03:00pm 13.5 W 14 26 992.9 - 7.2 - - - - - - -
29/02:30pm 13.6 W 17 31 993.1 - 7.0 - - - - - - -
29/02:13pm 13.2 WNW 15 31 993.4 - 7.0 - - - - - - -
29/02:12pm 13.2 WNW 15 31 993.4 - 7.0 - - - - - - -
29/02:00pm 12.4 NW 13 21 994.1 - 7.0 - - - - - - -
29/01:30pm 11.7 W 12 31 994.1 - 5.2 - - - - - - -
29/01:00pm 11.6 NW 15 29 994.2 - 4.6 - - - - - - -
29/12:55pm 11.6 NW 15 29 994.4 - 4.0 - - - - - - -
29/12:30pm 10.8 W 9 15 994.5 - 3.0 - - - - - - -
29/12:00pm 12.4 WSW 9 22 994.4 - 0.6 - - - - - - -
29/11:30am 14.9 WNW 16 32 993.8 - 0.2 - - - - - - -
29/11:00am 14.3 WNW 16 32 994.7 - 0.2 - - - - - - -
29/10:30am 14.1 WNW 22 44 995.0 - 0.2 - - - - - - -
29/10:22am 13.9 WNW 21 43 994.8 - 0.2 - - - - - - -
29/10:21am 13.9 WNW 21 43 994.8 - 0.2 - - - - - - -
29/10:00am 13.0 NW 19 32 995.4 - 0.2 - - - - - - -
29/09:30am 12.5 NW 20 35 995.9 - 0.2 - - - - - - -
29/09:00am 12.4 NW 19 35 996.5 - 7.6 Drizzle Cloudy 8 - - - -
29/08:30am 12.2 NW 19 35 996.8 - 6.6 - - - - - - -
29/08:05am 11.8 NW 15 27 997.4 - 6.2 - - - - - - -
29/08:04am 11.8 NW 15 27 997.4 - 6.2 - - - - - - -
29/08:00am 11.6 NW 14 22 997.7 - 6.2 - - - - - - -
29/07:30am 11.7 NW 18 33 998.0 - 4.2 - - - - - - -
29/07:00am 11.9 NW 15 28 997.8 - 3.6 - - - - - - -
29/06:32am 11.6 NW 16 26 998.4 - 3.2 - - - - - - -
29/06:30am 11.6 NW 15 25 998.5 - 3.2 - - - - - - -
29/06:00am 11.6 WNW 17 33 998.7 - 2.8 - - - - - - -
29/05:30am 12.6 WNW 15 28 997.9 - 2.2 - - - - - - -
29/05:00am 12.3 NW 15 26 998.4 - 2.2 - - - - - - -
29/04:32am 12.6 NW 15 28 999.0 - 2.2 - - - - - - -
29/04:30am 12.4 NW 14 28 999.0 - 2.2 - - - - - - -
29/04:24am 12.3 NW 15 28 999.1 - 2.2 - - - - - - -
29/04:00am 11.8 NW 12 23 999.9 - 2.2 - - - - - - -
29/03:30am 11.4 NW 10 19 1000.6 - 2.2 - - - - - - -
29/03:00am 11.0 NW 10 15 1001.6 - 2.2 - - - - - - -
29/02:30am 11.0 NW 11 19 1002.0 - 2.2 - - - - - - -
29/02:00am 10.8 NW 10 18 1002.7 - 2.2 - - - - - - -
29/01:30am 11.1 W 10 18 1003.0 - 0.6 - - - - - - -
29/01:00am 11.2 NW 8 15 1003.4 - 0.4 - - - - - - -
29/12:30am 11.3 NW 9 15 1003.7 - 0.4 - - - - - - -
29/12:00am 11.3 NW 10 17 1003.8 - 0.2 - - - - - - -
 
Date/Time
EST
Temp

°C
Wind Pressure Rain
since 9am
mm
Weather Cloud Vis
km
Sea
Height
m
Swell
Dir
 
Speed
knots
Gust
knots
hPa Trend Height
m
Period
s
Dir
28/11:30pm 12.1 NW 12 18 1004.2 - 0.0 - - - - - - -

Other Formats:

Comma delimited format used in spreadsheet applications
http://www.bom.gov.au/fwo/IDT60701/IDT60701.95981.axf

JavaScript Object Notation format (JSON) in row-major order
http://www.bom.gov.au/fwo/IDT60701/IDT60701.95981.json